sensor_id;sensor_type;location;lat;lon;timestamp;temperature;humidity
12901;DHT22;6518;50.930;5.344;2023-07-31T00:00:55;17.90;99.90
12901;DHT22;6518;50.930;5.344;2023-07-31T00:03:24;17.80;99.90
12901;DHT22;6518;50.930;5.344;2023-07-31T00:05:51;17.90;99.90
12901;DHT22;6518;50.930;5.344;2023-07-31T00:08:19;17.70;99.90
12901;DHT22;6518;50.930;5.344;2023-07-31T00:10:46;17.70;99.90
12901;DHT22;6518;50.930;5.344;2023-07-31T00:13:14;17.70;99.90
12901;DHT22;6518;50.930;5.344;2023-07-31T00:15:41;17.70;99.90
12901;DHT22;6518;50.930;5.344;2023-07-31T00:18:08;17.70;99.90
12901;DHT22;6518;50.930;5.344;2023-07-31T00:20:35;17.60;99.90
12901;DHT22;6518;50.930;5.344;2023-07-31T00:23:02;17.70;99.90
12901;DHT22;6518;50.930;5.344;2023-07-31T00:25:30;17.60;99.90
12901;DHT22;6518;50.930;5.344;2023-07-31T00:27:57;17.70;99.90
12901;DHT22;6518;50.930;5.344;2023-07-31T00:30:24;17.60;99.90
12901;DHT22;6518;50.930;5.344;2023-07-31T00:32:57;17.60;99.90
12901;DHT22;6518;50.930;5.344;2023-07-31T00:35:39;17.60;99.90
12901;DHT22;6518;50.930;5.344;2023-07-31T00:38:09;17.60;99.90
12901;DHT22;6518;50.930;5.344;2023-07-31T00:40:36;17.60;99.90
12901;DHT22;6518;50.930;5.344;2023-07-31T00:43:07;17.60;99.90
12901;DHT22;6518;50.930;5.344;2023-07-31T00:45:36;17.50;99.90
12901;DHT22;6518;50.930;5.344;2023-07-31T00:48:04;17.50;99.90
12901;DHT22;6518;50.930;5.344;2023-07-31T00:50:33;17.70;99.90
12901;DHT22;6518;50.930;5.344;2023-07-31T00:53:04;17.50;99.90
12901;DHT22;6518;50.930;5.344;2023-07-31T00:55:31;17.80;99.90
12901;DHT22;6518;50.930;5.344;2023-07-31T00:57:59;17.60;99.90
12901;DHT22;6518;50.930;5.344;2023-07-31T01:00:26;17.60;99.90
12901;DHT22;6518;50.930;5.344;2023-07-31T01:02:54;17.60;99.90
12901;DHT22;6518;50.930;5.344;2023-07-31T01:05:30;17.60;99.90
12901;DHT22;6518;50.930;5.344;2023-07-31T01:08:08;17.60;99.90
12901;DHT22;6518;50.930;5.344;2023-07-31T01:10:49;17.60;99.90
12901;DHT22;6518;50.930;5.344;2023-07-31T01:13:21;17.60;99.90
12901;DHT22;6518;50.930;5.344;2023-07-31T01:15:49;17.80;99.90
12901;DHT22;6518;50.930;5.344;2023-07-31T01:18:21;17.60;99.90
12901;DHT22;6518;50.930;5.344;2023-07-31T01:20:56;17.70;99.90
12901;DHT22;6518;50.930;5.344;2023-07-31T01:23:51;17.70;99.90
12901;DHT22;6518;50.930;5.344;2023-07-31T01:26:30;17.70;99.90
12901;DHT22;6518;50.930;5.344;2023-07-31T01:29:02;17.70;99.90
12901;DHT22;6518;50.930;5.344;2023-07-31T01:31:31;17.70;99.90
12901;DHT22;6518;50.930;5.344;2023-07-31T01:34:02;17.70;99.90
12901;DHT22;6518;50.930;5.344;2023-07-31T01:36:31;17.80;99.90
12901;DHT22;6518;50.930;5.344;2023-07-31T01:38:58;18.60;99.90
12901;DHT22;6518;50.930;5.344;2023-07-31T01:41:27;18.00;99.90
12901;DHT22;6518;50.930;5.344;2023-07-31T01:43:57;17.80;99.90
12901;DHT22;6518;50.930;5.344;2023-07-31T01:46:26;17.80;99.90
12901;DHT22;6518;50.930;5.344;2023-07-31T01:48:53;18.50;99.90
12901;DHT22;6518;50.930;5.344;2023-07-31T01:51:21;17.80;99.90
12901;DHT22;6518;50.930;5.344;2023-07-31T01:53:49;17.80;99.90
12901;DHT22;6518;50.930;5.344;2023-07-31T01:56:18;17.80;99.90
12901;DHT22;6518;50.930;5.344;2023-07-31T01:58:47;17.80;99.90
12901;DHT22;6518;50.930;5.344;2023-07-31T02:01:16;18.30;99.90
12901;DHT22;6518;50.930;5.344;2023-07-31T02:03:51;17.80;99.90
12901;DHT22;6518;50.930;5.344;2023-07-31T02:06:18;17.80;99.90
12901;DHT22;6518;50.930;5.344;2023-07-31T02:08:45;17.90;99.90
12901;DHT22;6518;50.930;5.344;2023-07-31T02:11:13;17.80;99.90
12901;DHT22;6518;50.930;5.344;2023-07-31T02:13:41;17.80;99.90
12901;DHT22;6518;50.930;5.344;2023-07-31T02:16:11;17.90;99.90
12901;DHT22;6518;50.930;5.344;2023-07-31T02:18:40;17.80;99.90
12901;DHT22;6518;50.930;5.344;2023-07-31T02:21:09;17.80;99.90
12901;DHT22;6518;50.930;5.344;2023-07-31T02:23:37;17.80;99.90
12901;DHT22;6518;50.930;5.344;2023-07-31T02:26:04;17.80;99.90
12901;DHT22;6518;50.930;5.344;2023-07-31T02:28:32;17.80;99.90
12901;DHT22;6518;50.930;5.344;2023-07-31T02:30:59;16.40;99.90
12901;DHT22;6518;50.930;5.344;2023-07-31T02:33:28;17.80;99.90
12901;DHT22;6518;50.930;5.344;2023-07-31T02:35:59;17.80;99.90
12901;DHT22;6518;50.930;5.344;2023-07-31T02:38:29;17.80;99.90
12901;DHT22;6518;50.930;5.344;2023-07-31T02:40:56;17.80;99.90
12901;DHT22;6518;50.930;5.344;2023-07-31T02:43:23;17.80;99.90
12901;DHT22;6518;50.930;5.344;2023-07-31T02:45:51;17.80;99.90
12901;DHT22;6518;50.930;5.344;2023-07-31T02:48:20;17.80;99.90
12901;DHT22;6518;50.930;5.344;2023-07-31T02:50:48;17.80;99.90
12901;DHT22;6518;50.930;5.344;2023-07-31T02:53:19;17.80;99.90
12901;DHT22;6518;50.930;5.344;2023-07-31T02:55:49;17.80;99.90
12901;DHT22;6518;50.930;5.344;2023-07-31T02:58:16;17.70;99.90
12901;DHT22;6518;50.930;5.344;2023-07-31T03:00:43;17.80;99.90
12901;DHT22;6518;50.930;5.344;2023-07-31T03:03:10;17.80;99.90
12901;DHT22;6518;50.930;5.344;2023-07-31T03:05:38;17.80;99.90
12901;DHT22;6518;50.930;5.344;2023-07-31T03:08:06;17.80;99.90
12901;DHT22;6518;50.930;5.344;2023-07-31T03:10:33;17.80;99.90
12901;DHT22;6518;50.930;5.344;2023-07-31T03:13:01;17.80;99.90
12901;DHT22;6518;50.930;5.344;2023-07-31T03:15:28;17.80;99.90
12901;DHT22;6518;50.930;5.344;2023-07-31T03:17:55;17.80;99.90
12901;DHT22;6518;50.930;5.344;2023-07-31T03:20:22;17.80;99.90
12901;DHT22;6518;50.930;5.344;2023-07-31T03:22:49;17.80;99.90
12901;DHT22;6518;50.930;5.344;2023-07-31T03:25:17;17.80;99.90
12901;DHT22;6518;50.930;5.344;2023-07-31T03:27:45;17.80;99.90
12901;DHT22;6518;50.930;5.344;2023-07-31T03:30:12;17.80;99.90
12901;DHT22;6518;50.930;5.344;2023-07-31T03:32:39;17.80;99.90
12901;DHT22;6518;50.930;5.344;2023-07-31T03:35:06;17.80;99.90
12901;DHT22;6518;50.930;5.344;2023-07-31T03:37:33;17.80;99.90
12901;DHT22;6518;50.930;5.344;2023-07-31T03:40:00;17.80;99.90
12901;DHT22;6518;50.930;5.344;2023-07-31T03:42:29;17.80;99.90
12901;DHT22;6518;50.930;5.344;2023-07-31T03:44:56;17.80;99.90
12901;DHT22;6518;50.930;5.344;2023-07-31T03:47:23;17.80;99.90
12901;DHT22;6518;50.930;5.344;2023-07-31T03:49:50;17.80;99.90
12901;DHT22;6518;50.930;5.344;2023-07-31T03:52:17;17.80;99.90
12901;DHT22;6518;50.930;5.344;2023-07-31T03:54:44;17.80;99.90
12901;DHT22;6518;50.930;5.344;2023-07-31T03:57:11;17.80;99.90
12901;DHT22;6518;50.930;5.344;2023-07-31T03:59:40;17.80;99.90
12901;DHT22;6518;50.930;5.344;2023-07-31T04:02:06;17.80;99.90
12901;DHT22;6518;50.930;5.344;2023-07-31T04:04:33;17.80;99.90
12901;DHT22;6518;50.930;5.344;2023-07-31T04:07:00;17.80;99.90
12901;DHT22;6518;50.930;5.344;2023-07-31T04:09:27;17.80;99.90
12901;DHT22;6518;50.930;5.344;2023-07-31T04:11:54;17.80;99.90
12901;DHT22;6518;50.930;5.344;2023-07-31T04:14:21;17.80;99.90
12901;DHT22;6518;50.930;5.344;2023-07-31T04:16:50;17.90;99.90
12901;DHT22;6518;50.930;5.344;2023-07-31T04:19:17;17.90;99.90
12901;DHT22;6518;50.930;5.344;2023-07-31T04:21:44;17.90;99.90
12901;DHT22;6518;50.930;5.344;2023-07-31T04:24:11;17.90;99.90
12901;DHT22;6518;50.930;5.344;2023-07-31T04:26:38;17.90;99.90
12901;DHT22;6518;50.930;5.344;2023-07-31T04:29:05;17.90;99.90
12901;DHT22;6518;50.930;5.344;2023-07-31T04:31:33;17.90;99.90
12901;DHT22;6518;50.930;5.344;2023-07-31T04:34:01;17.90;99.90
12901;DHT22;6518;50.930;5.344;2023-07-31T04:36:28;17.90;99.90
12901;DHT22;6518;50.930;5.344;2023-07-31T04:38:56;17.90;99.90
12901;DHT22;6518;50.930;5.344;2023-07-31T04:41:23;17.90;99.90
12901;DHT22;6518;50.930;5.344;2023-07-31T04:43:50;17.90;99.90
12901;DHT22;6518;50.930;5.344;2023-07-31T04:46:17;17.90;99.90
12901;DHT22;6518;50.930;5.344;2023-07-31T04:48:44;17.90;99.90
12901;DHT22;6518;50.930;5.344;2023-07-31T04:51:13;17.90;99.90
12901;DHT22;6518;50.930;5.344;2023-07-31T04:53:40;17.90;99.90
12901;DHT22;6518;50.930;5.344;2023-07-31T04:56:09;17.90;99.90
12901;DHT22;6518;50.930;5.344;2023-07-31T04:58:36;17.90;99.90
12901;DHT22;6518;50.930;5.344;2023-07-31T05:01:04;17.90;99.90
12901;DHT22;6518;50.930;5.344;2023-07-31T05:03:31;17.80;99.90
12901;DHT22;6518;50.930;5.344;2023-07-31T05:05:58;17.80;99.90
12901;DHT22;6518;50.930;5.344;2023-07-31T05:08:27;17.80;99.90
12901;DHT22;6518;50.930;5.344;2023-07-31T05:10:54;17.80;99.90
12901;DHT22;6518;50.930;5.344;2023-07-31T05:13:21;17.80;99.90
12901;DHT22;6518;50.930;5.344;2023-07-31T05:15:48;17.80;99.90
12901;DHT22;6518;50.930;5.344;2023-07-31T05:18:16;17.80;99.90
12901;DHT22;6518;50.930;5.344;2023-07-31T05:20:43;17.80;99.90
12901;DHT22;6518;50.930;5.344;2023-07-31T05:23:10;17.80;99.90
12901;DHT22;6518;50.930;5.344;2023-07-31T05:25:38;17.80;99.90
12901;DHT22;6518;50.930;5.344;2023-07-31T05:28:05;17.80;99.90
12901;DHT22;6518;50.930;5.344;2023-07-31T05:30:32;17.80;99.90
12901;DHT22;6518;50.930;5.344;2023-07-31T05:32:59;17.80;99.90
12901;DHT22;6518;50.930;5.344;2023-07-31T05:35:26;17.80;99.90
12901;DHT22;6518;50.930;5.344;2023-07-31T05:37:53;17.80;99.90
12901;DHT22;6518;50.930;5.344;2023-07-31T05:40:20;17.80;99.90
12901;DHT22;6518;50.930;5.344;2023-07-31T05:42:48;17.80;99.90
12901;DHT22;6518;50.930;5.344;2023-07-31T05:45:15;17.80;99.90
12901;DHT22;6518;50.930;5.344;2023-07-31T05:47:42;17.80;99.90
12901;DHT22;6518;50.930;5.344;2023-07-31T05:50:09;17.80;99.90
12901;DHT22;6518;50.930;5.344;2023-07-31T05:52:36;17.80;99.90
12901;DHT22;6518;50.930;5.344;2023-07-31T05:55:03;17.80;99.90
12901;DHT22;6518;50.930;5.344;2023-07-31T05:57:31;17.90;99.90
12901;DHT22;6518;50.930;5.344;2023-07-31T05:59:59;17.90;99.90
12901;DHT22;6518;50.930;5.344;2023-07-31T06:02:26;17.90;99.90
12901;DHT22;6518;50.930;5.344;2023-07-31T06:04:53;17.90;99.90
12901;DHT22;6518;50.930;5.344;2023-07-31T06:07:20;17.90;99.90
12901;DHT22;6518;50.930;5.344;2023-07-31T06:09:47;17.90;99.90
12901;DHT22;6518;50.930;5.344;2023-07-31T06:12:15;17.90;99.90
12901;DHT22;6518;50.930;5.344;2023-07-31T06:14:44;17.90;99.90
12901;DHT22;6518;50.930;5.344;2023-07-31T06:17:12;17.90;99.90
12901;DHT22;6518;50.930;5.344;2023-07-31T06:19:39;17.80;99.90
12901;DHT22;6518;50.930;5.344;2023-07-31T06:22:06;17.80;99.90
12901;DHT22;6518;50.930;5.344;2023-07-31T06:24:34;17.80;99.90
12901;DHT22;6518;50.930;5.344;2023-07-31T06:27:01;17.70;99.90
12901;DHT22;6518;50.930;5.344;2023-07-31T06:29:29;17.70;99.90
12901;DHT22;6518;50.930;5.344;2023-07-31T06:31:56;17.70;99.90
12901;DHT22;6518;50.930;5.344;2023-07-31T06:34:25;17.70;99.90
12901;DHT22;6518;50.930;5.344;2023-07-31T06:36:52;17.70;99.90
12901;DHT22;6518;50.930;5.344;2023-07-31T06:39:19;17.70;99.90
12901;DHT22;6518;50.930;5.344;2023-07-31T06:41:46;17.60;99.90
12901;DHT22;6518;50.930;5.344;2023-07-31T06:44:13;17.70;99.90
12901;DHT22;6518;50.930;5.344;2023-07-31T06:46:40;17.70;99.90
12901;DHT22;6518;50.930;5.344;2023-07-31T06:49:06;17.60;99.90
12901;DHT22;6518;50.930;5.344;2023-07-31T06:51:35;17.60;99.90
12901;DHT22;6518;50.930;5.344;2023-07-31T06:54:03;17.60;99.90
12901;DHT22;6518;50.930;5.344;2023-07-31T06:56:31;17.60;99.90
12901;DHT22;6518;50.930;5.344;2023-07-31T06:59:00;17.60;99.90
12901;DHT22;6518;50.930;5.344;2023-07-31T07:01:28;17.70;99.90
12901;DHT22;6518;50.930;5.344;2023-07-31T07:03:55;17.70;99.90
12901;DHT22;6518;50.930;5.344;2023-07-31T07:06:23;17.70;99.90
12901;DHT22;6518;50.930;5.344;2023-07-31T07:08:51;17.80;99.90
12901;DHT22;6518;50.930;5.344;2023-07-31T07:11:18;17.80;99.90
12901;DHT22;6518;50.930;5.344;2023-07-31T07:13:45;17.90;99.90
12901;DHT22;6518;50.930;5.344;2023-07-31T07:16:12;17.90;99.90
12901;DHT22;6518;50.930;5.344;2023-07-31T07:18:39;18.00;99.90
12901;DHT22;6518;50.930;5.344;2023-07-31T07:21:06;18.00;99.90
12901;DHT22;6518;50.930;5.344;2023-07-31T07:23:34;18.10;99.90
12901;DHT22;6518;50.930;5.344;2023-07-31T07:26:02;18.10;99.90
12901;DHT22;6518;50.930;5.344;2023-07-31T07:28:29;18.10;99.90
12901;DHT22;6518;50.930;5.344;2023-07-31T07:30:56;18.20;99.90
12901;DHT22;6518;50.930;5.344;2023-07-31T07:33:23;18.30;99.90
12901;DHT22;6518;50.930;5.344;2023-07-31T07:35:50;18.40;99.90
12901;DHT22;6518;50.930;5.344;2023-07-31T07:38:17;18.40;99.90
12901;DHT22;6518;50.930;5.344;2023-07-31T07:40:45;18.40;99.90
12901;DHT22;6518;50.930;5.344;2023-07-31T07:43:17;18.30;99.90
12901;DHT22;6518;50.930;5.344;2023-07-31T07:45:44;18.30;99.90
12901;DHT22;6518;50.930;5.344;2023-07-31T07:48:11;18.20;99.90
12901;DHT22;6518;50.930;5.344;2023-07-31T07:50:38;18.20;99.90
12901;DHT22;6518;50.930;5.344;2023-07-31T07:53:05;18.20;99.90
12901;DHT22;6518;50.930;5.344;2023-07-31T07:55:32;18.20;99.90
12901;DHT22;6518;50.930;5.344;2023-07-31T07:57:59;18.20;99.90
12901;DHT22;6518;50.930;5.344;2023-07-31T08:00:27;18.20;99.90
12901;DHT22;6518;50.930;5.344;2023-07-31T08:02:54;18.20;99.90
12901;DHT22;6518;50.930;5.344;2023-07-31T08:05:23;18.30;99.90
12901;DHT22;6518;50.930;5.344;2023-07-31T08:07:49;18.30;99.90
12901;DHT22;6518;50.930;5.344;2023-07-31T08:10:16;18.30;99.90
12901;DHT22;6518;50.930;5.344;2023-07-31T08:12:43;18.30;99.90
12901;DHT22;6518;50.930;5.344;2023-07-31T08:15:10;18.30;99.90
12901;DHT22;6518;50.930;5.344;2023-07-31T08:17:39;18.30;99.90
12901;DHT22;6518;50.930;5.344;2023-07-31T08:20:07;18.30;99.90
12901;DHT22;6518;50.930;5.344;2023-07-31T08:22:34;18.30;99.90
12901;DHT22;6518;50.930;5.344;2023-07-31T08:25:01;18.30;99.90
12901;DHT22;6518;50.930;5.344;2023-07-31T08:27:28;18.30;99.90
12901;DHT22;6518;50.930;5.344;2023-07-31T08:29:55;18.30;99.90
12901;DHT22;6518;50.930;5.344;2023-07-31T08:32:22;18.40;99.90
12901;DHT22;6518;50.930;5.344;2023-07-31T08:34:51;18.40;99.90
12901;DHT22;6518;50.930;5.344;2023-07-31T08:37:18;18.50;99.90
12901;DHT22;6518;50.930;5.344;2023-07-31T08:39:45;18.50;99.90
12901;DHT22;6518;50.930;5.344;2023-07-31T08:42:12;18.50;99.90
12901;DHT22;6518;50.930;5.344;2023-07-31T08:44:39;18.50;99.90
12901;DHT22;6518;50.930;5.344;2023-07-31T08:47:06;18.50;99.90
12901;DHT22;6518;50.930;5.344;2023-07-31T08:49:35;18.50;99.90
12901;DHT22;6518;50.930;5.344;2023-07-31T08:52:06;18.60;99.90
12901;DHT22;6518;50.930;5.344;2023-07-31T08:54:34;18.60;99.90
12901;DHT22;6518;50.930;5.344;2023-07-31T08:57:01;18.50;99.90
12901;DHT22;6518;50.930;5.344;2023-07-31T08:59:30;18.50;99.90
12901;DHT22;6518;50.930;5.344;2023-07-31T09:02:01;18.60;99.90
12901;DHT22;6518;50.930;5.344;2023-07-31T09:04:30;18.60;99.90
12901;DHT22;6518;50.930;5.344;2023-07-31T09:07:01;18.70;99.90
12901;DHT22;6518;50.930;5.344;2023-07-31T09:09:31;18.70;99.90
12901;DHT22;6518;50.930;5.344;2023-07-31T09:11:58;18.70;99.90
12901;DHT22;6518;50.930;5.344;2023-07-31T09:14:25;18.70;99.90
12901;DHT22;6518;50.930;5.344;2023-07-31T09:16:53;18.80;99.90
12901;DHT22;6518;50.930;5.344;2023-07-31T09:19:34;18.80;99.90
12901;DHT22;6518;50.930;5.344;2023-07-31T09:22:03;18.90;99.90
12901;DHT22;6518;50.930;5.344;2023-07-31T09:24:33;19.00;99.90
12901;DHT22;6518;50.930;5.344;2023-07-31T09:27:01;19.00;99.90
12901;DHT22;6518;50.930;5.344;2023-07-31T09:29:29;19.00;99.90
12901;DHT22;6518;50.930;5.344;2023-07-31T09:31:56;19.00;99.90
12901;DHT22;6518;50.930;5.344;2023-07-31T09:34:29;18.90;99.90
12901;DHT22;6518;50.930;5.344;2023-07-31T09:37:00;18.80;99.90
12901;DHT22;6518;50.930;5.344;2023-07-31T09:39:31;18.80;99.90
12901;DHT22;6518;50.930;5.344;2023-07-31T09:41:58;18.80;99.90
12901;DHT22;6518;50.930;5.344;2023-07-31T09:44:38;18.80;99.90
12901;DHT22;6518;50.930;5.344;2023-07-31T09:47:06;18.80;99.90
12901;DHT22;6518;50.930;5.344;2023-07-31T09:49:34;18.80;99.90
12901;DHT22;6518;50.930;5.344;2023-07-31T09:52:01;18.90;99.90
12901;DHT22;6518;50.930;5.344;2023-07-31T09:54:39;19.00;99.90
12901;DHT22;6518;50.930;5.344;2023-07-31T09:57:07;19.00;99.90
12901;DHT22;6518;50.930;5.344;2023-07-31T09:59:35;19.00;99.90
12901;DHT22;6518;50.930;5.344;2023-07-31T10:02:03;19.10;99.90
12901;DHT22;6518;50.930;5.344;2023-07-31T10:04:30;19.20;99.90
12901;DHT22;6518;50.930;5.344;2023-07-31T10:06:59;19.10;99.90
12901;DHT22;6518;50.930;5.344;2023-07-31T10:09:28;19.20;99.90
12901;DHT22;6518;50.930;5.344;2023-07-31T10:12:00;19.20;99.90
12901;DHT22;6518;50.930;5.344;2023-07-31T10:14:27;19.20;99.90
12901;DHT22;6518;50.930;5.344;2023-07-31T10:16:55;19.20;99.90
12901;DHT22;6518;50.930;5.344;2023-07-31T10:19:23;19.20;99.90
12901;DHT22;6518;50.930;5.344;2023-07-31T10:21:50;19.20;99.90
12901;DHT22;6518;50.930;5.344;2023-07-31T10:24:18;19.20;99.90
12901;DHT22;6518;50.930;5.344;2023-07-31T10:26:47;19.30;99.90
12901;DHT22;6518;50.930;5.344;2023-07-31T10:29:17;19.30;99.90
12901;DHT22;6518;50.930;5.344;2023-07-31T10:31:47;19.30;99.90
12901;DHT22;6518;50.930;5.344;2023-07-31T10:34:15;19.30;99.90
12901;DHT22;6518;50.930;5.344;2023-07-31T10:36:44;19.40;99.90
12901;DHT22;6518;50.930;5.344;2023-07-31T10:39:34;19.40;99.90
12901;DHT22;6518;50.930;5.344;2023-07-31T10:42:10;19.40;99.90
12901;DHT22;6518;50.930;5.344;2023-07-31T10:44:43;19.50;99.90
12901;DHT22;6518;50.930;5.344;2023-07-31T10:47:17;19.60;99.90
12901;DHT22;6518;50.930;5.344;2023-07-31T10:49:45;19.70;99.90
12901;DHT22;6518;50.930;5.344;2023-07-31T10:52:22;19.80;99.90
12901;DHT22;6518;50.930;5.344;2023-07-31T10:55:13;20.00;99.90
12901;DHT22;6518;50.930;5.344;2023-07-31T10:57:44;20.20;99.90
12901;DHT22;6518;50.930;5.344;2023-07-31T11:00:20;20.20;99.90
12901;DHT22;6518;50.930;5.344;2023-07-31T11:03:02;20.10;99.90
12901;DHT22;6518;50.930;5.344;2023-07-31T11:05:59;20.20;99.90
12901;DHT22;6518;50.930;5.344;2023-07-31T11:08:29;20.20;99.90
12901;DHT22;6518;50.930;5.344;2023-07-31T11:11:07;20.10;99.90
12901;DHT22;6518;50.930;5.344;2023-07-31T11:13:40;20.10;99.90
12901;DHT22;6518;50.930;5.344;2023-07-31T11:16:09;20.20;99.90
12901;DHT22;6518;50.930;5.344;2023-07-31T11:18:39;20.10;99.90
12901;DHT22;6518;50.930;5.344;2023-07-31T11:21:06;20.20;99.90
12901;DHT22;6518;50.930;5.344;2023-07-31T11:23:33;20.30;99.90
12901;DHT22;6518;50.930;5.344;2023-07-31T11:26:00;20.40;99.90
12901;DHT22;6518;50.930;5.344;2023-07-31T11:28:32;20.50;99.90
12901;DHT22;6518;50.930;5.344;2023-07-31T11:31:00;20.50;99.90
12901;DHT22;6518;50.930;5.344;2023-07-31T11:33:30;20.60;99.90
12901;DHT22;6518;50.930;5.344;2023-07-31T11:35:57;20.70;99.90
12901;DHT22;6518;50.930;5.344;2023-07-31T11:38:25;20.80;99.90
12901;DHT22;6518;50.930;5.344;2023-07-31T11:40:53;20.90;99.90
12901;DHT22;6518;50.930;5.344;2023-07-31T11:43:20;20.90;99.90
12901;DHT22;6518;50.930;5.344;2023-07-31T11:45:48;21.00;99.90
12901;DHT22;6518;50.930;5.344;2023-07-31T11:48:19;21.10;99.90
12901;DHT22;6518;50.930;5.344;2023-07-31T11:50:49;21.20;99.90
12901;DHT22;6518;50.930;5.344;2023-07-31T11:53:19;21.30;99.90
12901;DHT22;6518;50.930;5.344;2023-07-31T11:55:47;21.40;99.90
12901;DHT22;6518;50.930;5.344;2023-07-31T11:58:15;21.50;99.90
12901;DHT22;6518;50.930;5.344;2023-07-31T12:00:43;21.60;99.90
12901;DHT22;6518;50.930;5.344;2023-07-31T12:03:10;21.70;99.90
12901;DHT22;6518;50.930;5.344;2023-07-31T12:05:38;21.60;99.90
12901;DHT22;6518;50.930;5.344;2023-07-31T12:08:11;21.60;99.90
12901;DHT22;6518;50.930;5.344;2023-07-31T12:10:39;21.60;99.90
12901;DHT22;6518;50.930;5.344;2023-07-31T12:13:09;21.50;99.90
12901;DHT22;6518;50.930;5.344;2023-07-31T12:15:40;21.50;99.90
12901;DHT22;6518;50.930;5.344;2023-07-31T12:18:09;21.40;99.90
12901;DHT22;6518;50.930;5.344;2023-07-31T12:20:43;21.40;99.90
12901;DHT22;6518;50.930;5.344;2023-07-31T12:23:17;21.30;99.90
12901;DHT22;6518;50.930;5.344;2023-07-31T12:25:44;21.20;99.90
12901;DHT22;6518;50.930;5.344;2023-07-31T12:28:11;21.10;99.90
12901;DHT22;6518;50.930;5.344;2023-07-31T12:30:39;21.00;99.90
12901;DHT22;6518;50.930;5.344;2023-07-31T12:33:12;21.10;99.90
12901;DHT22;6518;50.930;5.344;2023-07-31T12:35:43;21.20;99.90
12901;DHT22;6518;50.930;5.344;2023-07-31T12:38:11;21.40;99.90
12901;DHT22;6518;50.930;5.344;2023-07-31T12:40:41;21.60;99.90
12901;DHT22;6518;50.930;5.344;2023-07-31T12:43:08;21.90;99.90
12901;DHT22;6518;50.930;5.344;2023-07-31T12:45:35;22.20;99.90
12901;DHT22;6518;50.930;5.344;2023-07-31T12:48:02;22.40;99.90
12901;DHT22;6518;50.930;5.344;2023-07-31T12:50:29;22.40;99.90
12901;DHT22;6518;50.930;5.344;2023-07-31T12:52:56;22.30;99.90
12901;DHT22;6518;50.930;5.344;2023-07-31T12:55:23;22.20;99.90
12901;DHT22;6518;50.930;5.344;2023-07-31T12:57:52;22.00;99.90
12901;DHT22;6518;50.930;5.344;2023-07-31T13:00:19;21.90;99.90
12901;DHT22;6518;50.930;5.344;2023-07-31T13:02:46;21.80;99.90
12901;DHT22;6518;50.930;5.344;2023-07-31T13:05:13;21.70;99.90
12901;DHT22;6518;50.930;5.344;2023-07-31T13:07:40;21.60;99.90
12901;DHT22;6518;50.930;5.344;2023-07-31T13:10:08;21.40;99.90
12901;DHT22;6518;50.930;5.344;2023-07-31T13:12:35;21.30;99.90
12901;DHT22;6518;50.930;5.344;2023-07-31T13:15:04;21.30;99.90
12901;DHT22;6518;50.930;5.344;2023-07-31T13:17:31;21.20;99.90
12901;DHT22;6518;50.930;5.344;2023-07-31T13:19:58;21.10;99.90
12901;DHT22;6518;50.930;5.344;2023-07-31T13:22:25;21.00;99.90
12901;DHT22;6518;50.930;5.344;2023-07-31T13:24:52;21.00;99.90
12901;DHT22;6518;50.930;5.344;2023-07-31T13:27:19;21.00;99.90
12901;DHT22;6518;50.930;5.344;2023-07-31T13:29:47;20.90;99.90
12901;DHT22;6518;50.930;5.344;2023-07-31T13:32:16;20.90;99.90
12901;DHT22;6518;50.930;5.344;2023-07-31T13:34:43;20.90;99.90
12901;DHT22;6518;50.930;5.344;2023-07-31T13:37:10;20.90;99.90
12901;DHT22;6518;50.930;5.344;2023-07-31T13:39:37;20.90;99.90
12901;DHT22;6518;50.930;5.344;2023-07-31T13:42:04;20.90;99.90
12901;DHT22;6518;50.930;5.344;2023-07-31T13:44:32;21.00;99.90
12901;DHT22;6518;50.930;5.344;2023-07-31T13:46:59;21.00;99.90
12901;DHT22;6518;50.930;5.344;2023-07-31T13:49:28;21.00;99.90
12901;DHT22;6518;50.930;5.344;2023-07-31T13:51:56;21.00;99.90
12901;DHT22;6518;50.930;5.344;2023-07-31T13:54:23;21.00;99.90
12901;DHT22;6518;50.930;5.344;2023-07-31T13:56:51;21.00;99.90
12901;DHT22;6518;50.930;5.344;2023-07-31T13:59:18;21.00;99.90
12901;DHT22;6518;50.930;5.344;2023-07-31T14:01:46;21.00;99.90
12901;DHT22;6518;50.930;5.344;2023-07-31T14:04:13;20.90;99.90
12901;DHT22;6518;50.930;5.344;2023-07-31T14:06:42;20.90;99.90
12901;DHT22;6518;50.930;5.344;2023-07-31T14:09:09;20.90;99.90
12901;DHT22;6518;50.930;5.344;2023-07-31T14:11:36;20.80;99.90
12901;DHT22;6518;50.930;5.344;2023-07-31T14:14:03;20.80;99.90
12901;DHT22;6518;50.930;5.344;2023-07-31T14:16:30;20.70;99.90
12901;DHT22;6518;50.930;5.344;2023-07-31T14:18:57;20.70;99.90
12901;DHT22;6518;50.930;5.344;2023-07-31T14:21:25;20.70;99.90
12901;DHT22;6518;50.930;5.344;2023-07-31T14:23:54;20.60;99.90
12901;DHT22;6518;50.930;5.344;2023-07-31T14:26:21;20.60;99.90
12901;DHT22;6518;50.930;5.344;2023-07-31T14:28:48;20.60;99.90
12901;DHT22;6518;50.930;5.344;2023-07-31T14:31:15;20.60;99.90
12901;DHT22;6518;50.930;5.344;2023-07-31T14:33:42;20.50;99.90
12901;DHT22;6518;50.930;5.344;2023-07-31T14:36:08;20.50;99.90
12901;DHT22;6518;50.930;5.344;2023-07-31T14:38:35;20.50;99.90
12901;DHT22;6518;50.930;5.344;2023-07-31T14:41:04;20.50;99.90
12901;DHT22;6518;50.930;5.344;2023-07-31T14:43:31;20.40;99.90
12901;DHT22;6518;50.930;5.344;2023-07-31T14:45:58;20.40;99.90
12901;DHT22;6518;50.930;5.344;2023-07-31T14:48:25;20.40;99.90
12901;DHT22;6518;50.930;5.344;2023-07-31T14:50:53;20.40;99.90
12901;DHT22;6518;50.930;5.344;2023-07-31T14:53:20;20.40;99.90
12901;DHT22;6518;50.930;5.344;2023-07-31T14:55:47;20.30;99.90
12901;DHT22;6518;50.930;5.344;2023-07-31T14:58:15;20.30;99.90
12901;DHT22;6518;50.930;5.344;2023-07-31T15:00:43;20.30;99.90
12901;DHT22;6518;50.930;5.344;2023-07-31T15:03:10;20.30;99.90
12901;DHT22;6518;50.930;5.344;2023-07-31T15:05:37;20.20;99.90
12901;DHT22;6518;50.930;5.344;2023-07-31T15:08:04;20.20;99.90
12901;DHT22;6518;50.930;5.344;2023-07-31T15:10:32;20.20;99.90
12901;DHT22;6518;50.930;5.344;2023-07-31T15:12:58;20.10;99.90
12901;DHT22;6518;50.930;5.344;2023-07-31T15:15:28;20.10;99.90
12901;DHT22;6518;50.930;5.344;2023-07-31T15:17:55;20.00;99.90
12901;DHT22;6518;50.930;5.344;2023-07-31T15:20:22;20.00;99.90
12901;DHT22;6518;50.930;5.344;2023-07-31T15:22:49;20.00;99.90
12901;DHT22;6518;50.930;5.344;2023-07-31T15:25:16;20.00;99.90
12901;DHT22;6518;50.930;5.344;2023-07-31T15:27:43;19.90;99.90
12901;DHT22;6518;50.930;5.344;2023-07-31T15:30:10;19.90;99.90
12901;DHT22;6518;50.930;5.344;2023-07-31T15:32:39;19.90;99.90
12901;DHT22;6518;50.930;5.344;2023-07-31T15:35:06;19.90;99.90
12901;DHT22;6518;50.930;5.344;2023-07-31T15:37:33;19.90;99.90
12901;DHT22;6518;50.930;5.344;2023-07-31T15:40:00;19.90;99.90
12901;DHT22;6518;50.930;5.344;2023-07-31T15:42:27;19.80;99.90
12901;DHT22;6518;50.930;5.344;2023-07-31T15:44:54;19.80;99.90
12901;DHT22;6518;50.930;5.344;2023-07-31T15:47:21;19.80;99.90
12901;DHT22;6518;50.930;5.344;2023-07-31T15:49:49;19.80;99.90
12901;DHT22;6518;50.930;5.344;2023-07-31T15:52:16;19.80;99.90